Royal, NE (68773)

3:31 PM CDT on August 30, 2015 (GMT -0500)
Ewing | | Change Station
CLOSE
Current Station
Personal Weather Station
Location: Ewing, NE
Elevation: 1929 ft
Nearby Weather Stations

Elev 1929 ft 42.24 °N, 98.24 °W | Updated 1 minute ago

Clear
Clear
81.2 °F
Feels Like 85 °F
N
6.0
Wind Variable Wind from South
Gusts 12.0 mph

Today
High -- | Low -- °F
--% Chance of Precip.
Yesterday
High -- | Low -- °F
Precip. -- in
6:55 AM 8:10 PM
Full, 98% visible
Pressure 29.92 in
Visibility 10.0 miles
Clouds Clear
Heat Index 85 °F
Dew Point 70 °F
Humidity 69%
Rainfall 0.01 in
Snow Depth Not available.
UV 8 out of 12
Pollen 10.30 out of 12
Air Quality Not available.
Flu Activity Not available.
METAR KONL 302015Z AUTO 17012KT 10SM CLR 31/17 A2992 RMK AO2 T03060174
Pressure 29.92 in
Visibility 10.0 miles
Clouds Clear
Heat Index 85 °F
Dew Point 70 °F
Humidity 69%
Rainfall 0.01 in
Snow Depth Not available.
UV 8 out of 12
Pollen 10.30 out of 12
Air Quality Not available.
Flu Activity Not available.
METAR KONL 302015Z AUTO 17012KT 10SM CLR 31/17 A2992 RMK AO2 T03060174

10-Day Weather Forecast

×

Almanac

Astronomy

Aug. 30, 2015 Rise Set
Actual Time
Civil Twilight
Nautical Twilight
Astronomical Twilight
Moon
Length of Visible Light
Length of Day
Tomorrow will be .
, % of the Moon is Illuminated

Today's Extremes

State Highs State Lows

Community

WunderPhotos

Upload Photos

1,851,056 photos uploaded!

WunderBlogs® & News

Nearby

Air Quality

  Air Quality AQ Index Pollutant
Not available.

Snow Depth

Station Depth Elevation

Earthquake Activity

City Distance Mag. Time & Date
Minimum magnitude displayed is 2.5.

Coastal Water Temperatures

Place Temperature

Stations

Nearby Weather Stations

Station Location Temp. Windchill Dew Point Humidity Wind Precip. Elev Updated Type